createdAt,value
2019-04-21T00:02:52.534Z,54.22
2019-04-21T00:06:11.970Z,54.33
2019-04-21T00:09:20.428Z,53.48
2019-04-21T00:12:13.974Z,52.53
2019-04-21T00:15:05.021Z,56.34
2019-04-21T00:17:58.412Z,56.98
2019-04-21T00:20:56.218Z,57.21
2019-04-21T00:24:07.653Z,56.93
2019-04-21T00:27:10.942Z,57.86
2019-04-21T00:30:14.130Z,57.86
2019-04-21T00:33:03.314Z,51.30
2019-04-21T00:35:59.844Z,51.07
2019-04-21T00:39:20.943Z,51.02
2019-04-21T00:42:09.810Z,51.79
2019-04-21T00:45:09.570Z,53.07
2019-04-21T00:48:20.669Z,54.02
2019-04-21T00:51:25.085Z,55.18
2019-04-21T00:54:16.759Z,54.20
2019-04-21T00:57:22.075Z,50.68
2019-04-21T01:00:18.666Z,48.99
2019-04-21T01:03:14.510Z,46.48
2019-04-21T01:06:21.256Z,46.77
2019-04-21T01:09:09.574Z,47.38
2019-04-21T01:12:12.718Z,48.66
2019-04-21T01:15:21.159Z,49.19
2019-04-21T01:18:09.251Z,50.96
2019-04-21T01:20:51.736Z,56.23
2019-04-21T01:23:50.851Z,55.36
2019-04-21T01:27:02.038Z,54.64
2019-04-21T01:30:15.019Z,59.22
2019-04-21T01:33:17.360Z,60.28
2019-04-21T01:36:12.294Z,58.63
2019-04-21T01:39:13.180Z,59.07
2019-04-21T01:42:12.633Z,60.00
2019-04-21T01:45:12.877Z,60.10
2019-04-21T01:48:06.229Z,61.96
2019-04-21T01:51:10.074Z,60.72
2019-04-21T01:54:14.665Z,60.51
2019-04-21T01:57:11.443Z,58.76
2019-04-21T01:59:59.760Z,57.39
2019-04-21T02:03:28.523Z,56.82
2019-04-21T02:06:29.106Z,55.15
2019-04-21T02:09:10.091Z,52.53
2019-04-21T02:12:13.418Z,50.76
2019-04-21T02:15:20.134Z,51.17
2019-04-21T02:18:12.084Z,53.74
2019-04-21T02:21:00.143Z,55.82
2019-04-21T02:24:35.129Z,56.93
2019-04-21T02:27:12.787Z,58.91
2019-04-21T02:30:18.577Z,59.04
2019-04-21T02:36:32.806Z,62.81
2019-04-21T02:39:23.194Z,63.04
2019-04-21T02:42:19.972Z,63.77
2019-04-21T02:45:23.587Z,64.04
2019-04-21T02:48:28.667Z,63.25
2019-04-21T02:51:27.993Z,66.27
2019-04-21T02:54:49.782Z,66.07
2019-04-21T03:00:24.573Z,63.97
2019-04-21T03:06:24.992Z,64.93
2019-04-21T03:09:26.241Z,65.94
2019-04-21T03:12:20.615Z,66.17
2019-04-21T03:15:23.472Z,64.39
2019-04-21T03:18:26.601Z,65.14
2019-04-21T03:21:22.233Z,64.21
2019-04-21T03:24:18.448Z,64.59
2019-04-21T03:27:35.551Z,63.15
2019-04-21T03:36:41.053Z,61.61
2019-04-21T03:39:18.020Z,60.17
2019-04-21T03:42:26.895Z,61.10
2019-04-21T03:45:34.793Z,61.13
2019-04-21T03:48:36.159Z,61.78
2019-04-21T03:51:21.021Z,62.81
2019-04-21T03:54:18.183Z,64.39
2019-04-21T04:00:34.701Z,64.77
2019-04-21T04:06:20.568Z,64.49
2019-04-21T04:09:25.724Z,66.30
2019-04-21T04:12:32.813Z,68.82
2019-04-21T04:15:31.118Z,67.99
2019-04-21T04:18:36.255Z,66.13
2019-04-21T04:21:28.809Z,67.16
2019-04-21T04:30:27.639Z,66.41
2019-04-21T04:33:30.337Z,67.75
2019-04-21T04:39:36.302Z,68.78
2019-04-21T04:48:21.126Z,68.51
2019-04-21T04:51:22.996Z,67.75
2019-04-21T04:54:31.640Z,66.51
2019-04-21T04:57:29.067Z,67.13
2019-04-21T05:00:26.123Z,66.38
2019-04-21T05:03:26.356Z,67.61
2019-04-21T05:06:37.243Z,67.27
2019-04-21T05:09:25.256Z,68.72
2019-04-21T05:12:15.759Z,64.77
2019-04-21T05:15:16.190Z,63.78
2019-04-21T05:18:21.943Z,62.52
2019-04-21T05:21:34.284Z,60.22
2019-04-21T05:24:07.504Z,62.97
2019-04-21T05:27:03.446Z,58.59
2019-04-21T05:30:17.793Z,55.98
2019-04-21T05:33:09.690Z,57.21
2019-04-21T05:36:09.386Z,54.00
2019-04-21T05:39:10.692Z,52.51
2019-04-21T05:42:00.260Z,50.42
2019-04-21T05:45:27.027Z,48.55
2019-04-21T05:49:52.485Z,47.48
2019-04-21T05:52:52.015Z,47.66
2019-04-21T05:55:58.401Z,47.25
2019-04-21T05:58:58.085Z,45.98
2019-04-21T06:02:09.313Z,44.85
2019-04-21T06:05:05.836Z,44.71
2019-04-21T06:07:52.673Z,44.61
2019-04-21T06:11:13.147Z,44.41
2019-04-21T06:16:58.665Z,42.35
2019-04-21T06:23:00.889Z,31.62
2019-04-21T06:26:04.324Z,27.36
2019-04-21T06:29:08.647Z,25.86
2019-04-21T06:37:56.485Z,21.41
2019-04-21T06:40:56.386Z,22.31
2019-04-21T06:44:12.879Z,23.00
2019-04-21T06:46:51.670Z,24.22
2019-04-21T06:49:54.927Z,22.72
2019-04-21T06:53:00.777Z,20.61
2019-04-21T06:55:55.975Z,20.20
2019-04-21T06:58:59.238Z,20.42
2019-04-21T07:01:56.631Z,20.59
2019-04-21T07:04:54.638Z,18.90
2019-04-21T07:08:07.729Z,19.15
2019-04-21T07:11:00.572Z,20.28
2019-04-21T07:14:05.664Z,19.46
2019-04-21T07:16:56.380Z,19.64
2019-04-21T07:19:57.439Z,18.13
2019-04-21T07:22:56.513Z,18.62
2019-04-21T07:25:52.910Z,18.00
2019-04-21T07:29:02.956Z,18.26
2019-04-21T07:31:58.726Z,17.45
2019-04-21T07:35:00.309Z,17.14
2019-04-21T07:37:53.357Z,18.23
2019-04-21T07:40:48.488Z,19.13
2019-04-21T07:43:47.753Z,16.94
2019-04-21T07:46:45.288Z,17.00
2019-04-21T07:49:57.411Z,15.31
2019-04-21T07:53:02.047Z,16.93
2019-04-21T07:55:34.245Z,16.02
2019-04-21T07:58:58.287Z,16.61
2019-04-21T08:01:56.390Z,16.89
2019-04-21T08:07:59.239Z,17.12
2019-04-21T08:10:52.268Z,17.52
2019-04-21T08:13:54.996Z,17.72
2019-04-21T08:19:49.670Z,16.28
2019-04-21T08:22:51.614Z,16.69
2019-04-21T08:25:58.964Z,15.98
2019-04-21T08:28:58.457Z,15.29
2019-04-21T08:31:56.144Z,15.86
2019-04-21T08:35:07.126Z,15.66
2019-04-21T08:37:49.557Z,14.94
2019-04-21T08:40:53.702Z,15.47
2019-04-21T08:43:51.384Z,15.16
2019-04-21T08:46:52.583Z,15.77
2019-04-21T08:49:55.467Z,15.06
2019-04-21T08:52:56.436Z,13.77
2019-04-21T08:55:55.399Z,15.16
2019-04-21T08:59:00.717Z,14.85
2019-04-21T09:02:14.415Z,15.67
2019-04-21T09:04:52.751Z,14.14
2019-04-21T09:07:56.070Z,14.94
2019-04-21T09:10:56.049Z,14.95
2019-04-21T09:13:50.648Z,15.06
2019-04-21T09:16:47.278Z,15.08
2019-04-21T09:19:58.049Z,14.76
2019-04-21T09:22:50.575Z,12.57
2019-04-21T09:25:53.032Z,14.12
2019-04-21T09:28:45.135Z,14.87
2019-04-21T09:31:37.429Z,14.83
2019-04-21T09:34:36.986Z,14.09
2019-04-21T09:37:40.720Z,13.57
2019-04-21T09:40:37.161Z,13.00
2019-04-21T09:43:40.052Z,12.60
2019-04-21T09:46:34.175Z,13.48
2019-04-21T09:49:33.213Z,13.70
2019-04-21T09:52:40.906Z,13.50
2019-04-21T09:55:41.751Z,16.52
2019-04-21T09:58:38.664Z,15.09
2019-04-21T10:01:45.047Z,14.32
2019-04-21T10:04:31.220Z,14.23
2019-04-21T10:07:35.579Z,13.78
2019-04-21T10:10:31.923Z,14.32
2019-04-21T10:13:30.138Z,13.51
2019-04-21T10:16:30.101Z,13.02
2019-04-21T10:19:30.089Z,13.63
2019-04-21T10:22:30.968Z,13.04
2019-04-21T10:25:30.661Z,12.65
2019-04-21T10:28:30.986Z,13.49
2019-04-21T10:31:29.991Z,12.76
2019-04-21T10:34:29.947Z,12.40
2019-04-21T10:37:42.892Z,13.56
2019-04-21T10:40:33.820Z,12.73
2019-04-21T10:43:31.194Z,12.65
2019-04-21T10:46:30.799Z,13.91
2019-04-21T10:49:30.777Z,11.41
2019-04-21T10:52:32.457Z,10.94
2019-04-21T10:55:44.440Z,12.25
2019-04-21T10:58:32.038Z,13.03
2019-04-21T11:01:29.724Z,12.29
2019-04-21T11:04:35.356Z,12.19
2019-04-21T11:07:34.433Z,11.62
2019-04-21T11:10:31.885Z,12.23
2019-04-21T11:13:30.728Z,12.92
2019-04-21T11:16:30.847Z,12.75
2019-04-21T11:19:30.717Z,13.05
2019-04-21T11:22:31.015Z,12.06
2019-04-21T11:25:30.428Z,11.44
2019-04-21T11:28:29.480Z,11.44
2019-04-21T11:31:29.478Z,11.88
2019-04-21T11:34:29.429Z,11.94
2019-04-21T11:37:30.483Z,13.10
2019-04-21T11:40:29.694Z,12.45
2019-04-21T11:43:30.707Z,14.55
2019-04-21T11:46:30.674Z,13.55
2019-04-21T11:49:32.277Z,14.42
2019-04-21T11:52:29.301Z,14.32
2019-04-21T11:55:35.250Z,13.22
2019-04-21T11:58:30.225Z,13.84
2019-04-21T12:01:29.725Z,14.13
2019-04-21T12:04:29.537Z,11.62
2019-04-21T12:07:29.374Z,13.43
2019-04-21T12:10:29.348Z,13.54
2019-04-21T12:13:30.037Z,13.32
2019-04-21T12:16:29.069Z,12.81
2019-04-21T12:19:30.441Z,12.99
2019-04-21T12:22:37.318Z,13.21
2019-04-21T12:25:29.229Z,15.12
2019-04-21T12:28:30.288Z,12.43
2019-04-21T12:31:29.769Z,13.39
2019-04-21T12:34:30.182Z,11.72
2019-04-21T12:37:29.000Z,12.32
2019-04-21T12:40:28.874Z,12.64
2019-04-21T12:43:28.805Z,13.81
2019-04-21T12:46:29.881Z,13.22
2019-04-21T12:49:29.724Z,14.60
2019-04-21T12:52:29.463Z,13.81
2019-04-21T12:55:31.681Z,14.50
2019-04-21T12:58:31.033Z,13.84
2019-04-21T13:01:28.668Z,12.35
2019-04-21T13:04:29.345Z,12.53
2019-04-21T13:07:28.635Z,12.04
2019-04-21T13:10:28.566Z,12.51
2019-04-21T13:13:28.550Z,12.11
2019-04-21T13:16:29.467Z,12.34
2019-04-21T13:19:29.357Z,13.26
2019-04-21T13:22:28.476Z,12.76
2019-04-21T13:25:29.669Z,12.62
2019-04-21T13:28:28.415Z,13.51
2019-04-21T13:31:28.394Z,13.43
2019-04-21T13:34:28.428Z,13.31
2019-04-21T13:37:29.678Z,13.92
2019-04-21T13:40:45.086Z,14.14
2019-04-21T13:43:30.715Z,12.65
2019-04-21T13:46:28.914Z,12.02
2019-04-21T13:49:29.501Z,12.57
2019-04-21T13:52:28.994Z,13.42
2019-04-21T13:55:29.619Z,11.25
2019-04-21T13:58:28.560Z,11.70
2019-04-21T14:01:28.097Z,11.77
2019-04-21T14:04:29.454Z,11.70
2019-04-21T14:07:28.125Z,11.76
2019-04-21T14:10:29.247Z,12.49
2019-04-21T14:13:27.980Z,13.06
2019-04-21T14:16:27.967Z,11.38
2019-04-21T14:19:27.922Z,12.55
2019-04-21T14:22:28.343Z,13.53
2019-04-21T14:25:28.033Z,12.43
2019-04-21T14:28:28.272Z,13.05
2019-04-21T14:31:28.437Z,12.05
2019-04-21T14:34:28.181Z,11.57
2019-04-21T14:37:28.755Z,11.58
2019-04-21T14:40:29.853Z,8.53
2019-04-21T14:43:28.031Z,9.70
2019-04-21T14:46:29.026Z,11.38
2019-04-21T14:49:28.986Z,10.47
2019-04-21T14:52:28.724Z,11.51
2019-04-21T14:55:27.581Z,10.58
2019-04-21T14:58:27.541Z,10.21
2019-04-21T15:01:28.213Z,10.71
2019-04-21T15:04:28.031Z,11.57
2019-04-21T15:07:27.609Z,11.51
2019-04-21T15:10:30.565Z,11.49
2019-04-21T15:13:28.052Z,10.59
2019-04-21T15:16:27.371Z,13.06
2019-04-21T15:19:28.674Z,13.44
2019-04-21T15:22:28.342Z,13.82
2019-04-21T15:25:27.966Z,13.93
2019-04-21T15:28:30.707Z,13.53
2019-04-21T15:31:32.986Z,13.54
2019-04-21T15:34:28.206Z,15.15
2019-04-21T15:37:28.263Z,14.87
2019-04-21T15:40:37.688Z,14.28
2019-04-21T15:43:28.638Z,16.28
2019-04-21T15:46:27.061Z,14.86
2019-04-21T15:49:33.205Z,15.08
2019-04-21T15:52:28.218Z,13.29
2019-04-21T15:55:26.969Z,13.02
2019-04-21T15:58:28.260Z,14.21
2019-04-21T16:01:28.135Z,12.73
2019-04-21T16:04:26.896Z,14.35
2019-04-21T16:07:26.846Z,15.32
2019-04-21T16:10:37.635Z,15.10
2019-04-21T16:13:27.797Z,15.39
2019-04-21T16:16:29.082Z,17.11
2019-04-21T16:19:27.201Z,16.10
2019-04-21T16:22:26.697Z,16.02
2019-04-21T16:25:26.866Z,19.08
2019-04-21T16:28:27.054Z,20.40
2019-04-21T16:31:27.875Z,20.60
2019-04-21T16:34:39.275Z,20.01
2019-04-21T16:37:27.837Z,20.21
2019-04-21T16:40:27.598Z,21.41
2019-04-21T16:43:27.478Z,20.90
2019-04-21T16:46:27.464Z,22.31
2019-04-21T16:49:27.483Z,21.11
2019-04-21T16:52:27.996Z,22.53
2019-04-21T16:55:26.783Z,23.13
2019-04-21T16:58:28.703Z,22.83
2019-04-21T17:01:29.220Z,24.02
2019-04-21T17:04:26.556Z,23.54
2019-04-21T17:07:26.358Z,23.75
2019-04-21T17:10:26.606Z,23.95
2019-04-21T17:13:27.216Z,24.66
2019-04-21T17:17:08.732Z,24.86
2019-04-21T17:19:31.612Z,25.27
2019-04-21T17:22:28.002Z,25.27
2019-04-21T17:25:27.825Z,24.88
2019-04-21T17:28:26.007Z,25.90
2019-04-21T17:31:26.668Z,26.40
2019-04-21T17:34:29.722Z,26.40
2019-04-21T17:37:27.290Z,24.80
2019-04-21T17:40:26.358Z,25.22
2019-04-21T17:43:25.884Z,25.31
2019-04-21T17:46:36.694Z,25.52
2019-04-21T17:49:26.790Z,26.12
2019-04-21T17:52:36.598Z,25.53
2019-04-21T17:55:31.315Z,26.25
2019-04-21T17:58:46.285Z,26.93
2019-04-21T18:01:47.478Z,27.55
2019-04-21T18:04:49.350Z,27.75
2019-04-21T18:07:45.406Z,28.56
2019-04-21T18:10:39.187Z,27.86
2019-04-21T18:13:26.945Z,28.58
2019-04-21T18:16:34.276Z,30.90
2019-04-21T18:19:31.055Z,32.32
2019-04-21T18:24:15.208Z,34.22
2019-04-21T18:27:11.591Z,34.36
2019-04-21T18:30:10.609Z,34.46
2019-04-21T18:33:15.495Z,34.96
2019-04-21T18:36:13.468Z,34.96
2019-04-21T18:39:28.574Z,36.49
2019-04-21T18:42:31.149Z,36.89
2019-04-21T18:48:24.535Z,36.80
2019-04-21T18:51:15.746Z,37.23
2019-04-21T18:54:28.853Z,38.03
2019-04-21T18:57:22.810Z,37.52
2019-04-21T19:00:19.373Z,37.74
2019-04-21T19:03:13.698Z,37.65
2019-04-21T19:06:16.466Z,38.65
2019-04-21T19:09:35.851Z,38.75
2019-04-21T19:12:47.358Z,39.37
2019-04-21T19:15:28.172Z,39.17
2019-04-21T19:18:39.862Z,39.68
2019-04-21T19:21:24.537Z,39.79
2019-04-21T19:24:33.261Z,40.20
2019-04-21T19:27:26.039Z,40.01
2019-04-21T19:30:36.774Z,40.92
2019-04-21T19:33:27.018Z,40.62
2019-04-21T19:36:11.182Z,40.82
2019-04-21T19:39:16.121Z,40.74
2019-04-21T19:42:19.331Z,40.32
2019-04-21T19:45:22.416Z,41.55
2019-04-21T19:48:26.097Z,41.06
2019-04-21T19:51:22.022Z,41.35
2019-04-21T19:54:22.122Z,42.18
2019-04-21T19:57:11.189Z,41.99
2019-04-21T20:00:10.173Z,41.59
2019-04-21T20:03:10.469Z,41.89
2019-04-21T20:06:26.887Z,41.18
2019-04-21T20:09:27.823Z,41.41
2019-04-21T20:12:35.530Z,41.20
2019-04-21T20:15:37.366Z,41.30
2019-04-21T20:18:21.042Z,40.19
2019-04-21T20:21:10.177Z,41.32
2019-04-21T20:24:12.640Z,40.82
2019-04-21T20:27:17.788Z,40.72
2019-04-21T20:30:23.344Z,41.14
2019-04-21T20:33:47.759Z,40.33
2019-04-21T20:36:31.397Z,41.14
2019-04-21T20:39:16.594Z,40.64
2019-04-21T20:42:21.621Z,40.73
2019-04-21T20:48:21.067Z,40.45
2019-04-21T20:51:27.413Z,40.86
2019-04-21T20:54:27.120Z,41.38
2019-04-21T20:57:25.931Z,41.28
2019-04-21T21:00:32.226Z,41.40
2019-04-21T21:03:28.884Z,40.19
2019-04-21T21:06:30.346Z,39.78
2019-04-21T21:09:25.342Z,40.00
2019-04-21T21:15:26.394Z,41.14
2019-04-21T21:21:28.011Z,41.66
2019-04-21T21:24:31.187Z,41.26
2019-04-21T21:27:25.424Z,41.05
2019-04-21T21:30:24.302Z,41.48
2019-04-21T21:33:27.466Z,40.56
2019-04-21T21:36:25.210Z,41.17
2019-04-21T21:39:35.512Z,41.17
2019-04-21T21:42:11.307Z,40.77
2019-04-21T21:45:15.971Z,40.47
2019-04-21T21:48:29.632Z,41.78
2019-04-21T21:51:18.101Z,40.67
2019-04-21T21:54:09.706Z,40.99
2019-04-21T21:57:08.289Z,41.70
2019-04-21T22:00:12.378Z,41.42
2019-04-21T22:03:17.595Z,41.62
2019-04-21T22:06:15.250Z,42.14
2019-04-21T22:09:10.207Z,42.76
2019-04-21T22:12:09.114Z,42.35
2019-04-21T22:15:10.859Z,41.84
2019-04-21T22:18:30.363Z,42.35
2019-04-21T22:21:18.949Z,43.79
2019-04-21T22:24:23.629Z,44.63
2019-04-21T22:27:09.465Z,45.97
2019-04-21T22:30:11.005Z,47.31
2019-04-21T22:33:10.842Z,46.40
2019-04-21T22:36:23.836Z,45.59
2019-04-21T22:39:27.283Z,45.79
2019-04-21T22:42:15.723Z,46.81
2019-04-21T22:45:09.327Z,45.91
2019-04-21T22:48:14.353Z,45.81
2019-04-21T22:51:19.162Z,45.81
2019-04-21T22:54:08.394Z,46.75
2019-04-21T22:57:14.719Z,47.05
2019-04-21T23:00:11.861Z,47.05
2019-04-21T23:03:15.019Z,46.97
2019-04-21T23:06:16.213Z,47.17
2019-04-21T23:09:08.797Z,47.49
2019-04-21T23:12:08.092Z,46.77
2019-04-21T23:15:13.436Z,46.75
2019-04-21T23:18:27.338Z,46.95
2019-04-21T23:21:19.489Z,46.87
2019-04-21T23:24:33.115Z,46.77
2019-04-21T23:27:19.958Z,47.40
2019-04-21T23:30:33.592Z,49.85
2019-04-21T23:33:12.292Z,49.77
2019-04-21T23:36:13.912Z,48.47
2019-04-21T23:39:17.029Z,49.79
2019-04-21T23:42:09.205Z,52.50
2019-04-21T23:45:08.618Z,53.85
2019-04-21T23:48:18.611Z,53.77
2019-04-21T23:51:21.814Z,51.17
2019-04-21T23:54:09.097Z,49.92
2019-04-21T23:57:14.231Z,50.86
